sensor_id;sensor_type;location;lat;lon;timestamp;pressure;altitude;pressure_sealevel;temperature;humidity
59873;BME280;50750;51.636;4.948;2022-09-21T00:01:16;102781.61;;;18.28;54.16
59873;BME280;50750;51.636;4.948;2022-09-21T00:03:43;102777.18;;;18.28;54.24
59873;BME280;50750;51.636;4.948;2022-09-21T00:06:14;102778.06;;;18.28;54.16
59873;BME280;50750;51.636;4.948;2022-09-21T00:08:42;102776.46;;;18.29;54.24
59873;BME280;50750;51.636;4.948;2022-09-21T00:11:20;102779.14;;;18.28;54.15
59873;BME280;50750;51.636;4.948;2022-09-21T00:13:51;102778.77;;;18.28;54.22
59873;BME280;50750;51.636;4.948;2022-09-21T00:16:18;102780.20;;;18.28;54.10
59873;BME280;50750;51.636;4.948;2022-09-21T00:18:46;102772.59;;;18.28;54.22
59873;BME280;50750;51.636;4.948;2022-09-21T00:21:14;102769.23;;;18.28;54.20
59873;BME280;50750;51.636;4.948;2022-09-21T00:23:42;102766.91;;;18.28;54.15
59873;BME280;50750;51.636;4.948;2022-09-21T00:26:15;102765.87;;;18.28;54.20
59873;BME280;50750;51.636;4.948;2022-09-21T00:28:43;102766.05;;;18.27;54.20
59873;BME280;50750;51.636;4.948;2022-09-21T00:31:13;102770.14;;;18.26;54.16
59873;BME280;50750;51.636;4.948;2022-09-21T00:33:40;102772.29;;;18.26;54.16
59873;BME280;50750;51.636;4.948;2022-09-21T00:36:13;102766.11;;;18.25;54.23
59873;BME280;50750;51.636;4.948;2022-09-21T00:38:43;102767.56;;;18.24;54.17
59873;BME280;50750;51.636;4.948;2022-09-21T00:41:11;102768.82;;;18.24;54.22
59873;BME280;50750;51.636;4.948;2022-09-21T00:43:45;102773.30;;;18.23;54.20
59873;BME280;50750;51.636;4.948;2022-09-21T00:46:23;102772.95;;;18.22;54.19
59873;BME280;50750;51.636;4.948;2022-09-21T00:48:52;102771.73;;;18.21;54.18
59873;BME280;50750;51.636;4.948;2022-09-21T00:51:20;102770.52;;;18.21;54.27
59873;BME280;50750;51.636;4.948;2022-09-21T00:53:50;102767.67;;;18.21;54.20
59873;BME280;50750;51.636;4.948;2022-09-21T00:56:18;102766.09;;;18.20;54.29
59873;BME280;50750;51.636;4.948;2022-09-21T00:58:47;102767.51;;;18.20;54.27
59873;BME280;50750;51.636;4.948;2022-09-21T01:01:17;102764.17;;;18.20;54.24
59873;BME280;50750;51.636;4.948;2022-09-21T01:03:45;102761.70;;;18.19;54.19
59873;BME280;50750;51.636;4.948;2022-09-21T01:06:14;102757.45;;;18.19;54.18
59873;BME280;50750;51.636;4.948;2022-09-21T01:08:43;102759.23;;;18.19;54.25
59873;BME280;50750;51.636;4.948;2022-09-21T01:18:50;102772.55;;;18.18;54.25
59873;BME280;50750;51.636;4.948;2022-09-21T01:21:21;102772.02;;;18.18;54.35
59873;BME280;50750;51.636;4.948;2022-09-21T01:32:08;102777.35;;;18.18;54.30
59873;BME280;50750;51.636;4.948;2022-09-21T01:37:32;102774.17;;;18.17;54.25
59873;BME280;50750;51.636;4.948;2022-09-21T01:40:07;102775.27;;;18.16;54.25
59873;BME280;50750;51.636;4.948;2022-09-21T01:42:39;102774.58;;;18.16;54.23
59873;BME280;50750;51.636;4.948;2022-09-21T01:45:07;102777.25;;;18.16;54.29
59873;BME280;50750;51.636;4.948;2022-09-21T01:47:36;102773.36;;;18.15;54.29
59873;BME280;50750;51.636;4.948;2022-09-21T01:50:07;102772.33;;;18.14;54.25
59873;BME280;50750;51.636;4.948;2022-09-21T01:52:55;102770.92;;;18.14;54.32
59873;BME280;50750;51.636;4.948;2022-09-21T01:55:29;102776.25;;;18.13;54.31
59873;BME280;50750;51.636;4.948;2022-09-21T01:58:04;102777.49;;;18.13;54.27
59873;BME280;50750;51.636;4.948;2022-09-21T02:00:38;102778.20;;;18.13;54.32
59873;BME280;50750;51.636;4.948;2022-09-21T02:03:13;102772.36;;;18.13;54.21
59873;BME280;50750;51.636;4.948;2022-09-21T02:05:42;102774.52;;;18.12;54.29
59873;BME280;50750;51.636;4.948;2022-09-21T02:08:09;102770.79;;;18.12;54.30
59873;BME280;50750;51.636;4.948;2022-09-21T02:10:41;102774.67;;;18.13;54.23
59873;BME280;50750;51.636;4.948;2022-09-21T02:13:10;102772.02;;;18.13;54.28
59873;BME280;50750;51.636;4.948;2022-09-21T02:15:44;102775.38;;;18.13;54.26
59873;BME280;50750;51.636;4.948;2022-09-21T02:25:03;102773.98;;;18.12;54.25
59873;BME280;50750;51.636;4.948;2022-09-21T02:30:29;102773.66;;;18.11;54.24
59873;BME280;50750;51.636;4.948;2022-09-21T02:35:49;102772.43;;;18.10;54.24
59873;BME280;50750;51.636;4.948;2022-09-21T02:38:32;102775.27;;;18.10;54.28
59873;BME280;50750;51.636;4.948;2022-09-21T02:44:49;102769.14;;;18.08;54.19
59873;BME280;50750;51.636;4.948;2022-09-21T02:47:23;102766.65;;;18.08;54.26
59873;BME280;50750;51.636;4.948;2022-09-21T02:49:56;102769.33;;;18.07;54.27
59873;BME280;50750;51.636;4.948;2022-09-21T02:52:24;102769.70;;;18.07;54.26
59873;BME280;50750;51.636;4.948;2022-09-21T02:54:52;102768.64;;;18.07;54.33
59873;BME280;50750;51.636;4.948;2022-09-21T02:57:21;102768.13;;;18.06;54.26
59873;BME280;50750;51.636;4.948;2022-09-21T02:59:49;102766.89;;;18.06;54.29
59873;BME280;50750;51.636;4.948;2022-09-21T03:02:16;102767.98;;;18.06;54.31
59873;BME280;50750;51.636;4.948;2022-09-21T03:04:46;102767.64;;;18.05;54.34
59873;BME280;50750;51.636;4.948;2022-09-21T03:07:16;102765.53;;;18.04;54.29
59873;BME280;50750;51.636;4.948;2022-09-21T03:09:43;102767.29;;;18.04;54.26
59873;BME280;50750;51.636;4.948;2022-09-21T03:12:10;102765.73;;;18.04;54.38
59873;BME280;50750;51.636;4.948;2022-09-21T03:14:36;102764.49;;;18.04;54.30
59873;BME280;50750;51.636;4.948;2022-09-21T03:17:03;102765.94;;;18.03;54.24
59873;BME280;50750;51.636;4.948;2022-09-21T03:19:29;102768.42;;;18.02;54.22
59873;BME280;50750;51.636;4.948;2022-09-21T03:21:56;102773.95;;;18.02;54.32
59873;BME280;50750;51.636;4.948;2022-09-21T03:24:23;102776.25;;;18.01;54.27
59873;BME280;50750;51.636;4.948;2022-09-21T03:27:08;102778.06;;;18.01;54.27
59873;BME280;50750;51.636;4.948;2022-09-21T03:29:34;102774.89;;;18.00;54.28
59873;BME280;50750;51.636;4.948;2022-09-21T03:32:01;102778.45;;;18.00;54.34
59873;BME280;50750;51.636;4.948;2022-09-21T03:34:27;102778.81;;;17.99;54.42
59873;BME280;50750;51.636;4.948;2022-09-21T03:36:54;102778.45;;;17.99;54.36
59873;BME280;50750;51.636;4.948;2022-09-21T03:39:22;102773.90;;;17.98;54.26
59873;BME280;50750;51.636;4.948;2022-09-21T03:41:48;102775.13;;;17.98;54.31
59873;BME280;50750;51.636;4.948;2022-09-21T03:44:15;102777.45;;;17.98;54.31
59873;BME280;50750;51.636;4.948;2022-09-21T03:46:43;102783.11;;;17.97;54.26
59873;BME280;50750;51.636;4.948;2022-09-21T03:49:09;102796.09;;;17.96;54.31
59873;BME280;50750;51.636;4.948;2022-09-21T03:51:36;102789.57;;;17.96;54.31
59873;BME280;50750;51.636;4.948;2022-09-21T03:54:04;102783.19;;;17.95;54.24
59873;BME280;50750;51.636;4.948;2022-09-21T03:56:32;102789.07;;;17.95;54.33
59873;BME280;50750;51.636;4.948;2022-09-21T03:58:59;102793.85;;;17.95;54.31
59873;BME280;50750;51.636;4.948;2022-09-21T04:01:25;102791.55;;;17.94;54.38
59873;BME280;50750;51.636;4.948;2022-09-21T04:03:52;102790.48;;;17.95;54.30
59873;BME280;50750;51.636;4.948;2022-09-21T04:06:19;102784.27;;;17.94;54.22
59873;BME280;50750;51.636;4.948;2022-09-21T04:08:46;102784.64;;;17.94;54.28
59873;BME280;50750;51.636;4.948;2022-09-21T04:11:15;102783.56;;;17.95;54.26
59873;BME280;50750;51.636;4.948;2022-09-21T04:13:42;102786.41;;;17.94;54.27
59873;BME280;50750;51.636;4.948;2022-09-21T04:16:09;102782.92;;;17.93;54.25
59873;BME280;50750;51.636;4.948;2022-09-21T04:18:37;102782.37;;;17.93;54.27
59873;BME280;50750;51.636;4.948;2022-09-21T04:21:04;102778.68;;;17.92;54.32
59873;BME280;50750;51.636;4.948;2022-09-21T04:23:31;102779.40;;;17.91;54.36
59873;BME280;50750;51.636;4.948;2022-09-21T04:25:58;102782.94;;;17.92;54.24
59873;BME280;50750;51.636;4.948;2022-09-21T04:28:24;102785.60;;;17.92;54.27
59873;BME280;50750;51.636;4.948;2022-09-21T04:30:54;102785.95;;;17.92;54.28
59873;BME280;50750;51.636;4.948;2022-09-21T04:33:20;102788.09;;;17.92;54.32
59873;BME280;50750;51.636;4.948;2022-09-21T04:35:55;102792.70;;;17.92;54.21
59873;BME280;50750;51.636;4.948;2022-09-21T04:38:21;102792.35;;;17.91;54.27
59873;BME280;50750;51.636;4.948;2022-09-21T04:40:55;102794.48;;;17.91;54.25
59873;BME280;50750;51.636;4.948;2022-09-21T04:43:22;102797.31;;;17.91;54.33
59873;BME280;50750;51.636;4.948;2022-09-21T04:45:49;102797.83;;;17.92;54.18
59873;BME280;50750;51.636;4.948;2022-09-21T04:48:15;102798.02;;;17.92;54.21
59873;BME280;50750;51.636;4.948;2022-09-21T04:50:47;102799.95;;;17.92;54.22
59873;BME280;50750;51.636;4.948;2022-09-21T04:53:14;102795.52;;;17.92;54.20
59873;BME280;50750;51.636;4.948;2022-09-21T04:55:41;102797.65;;;17.92;54.14
59873;BME280;50750;51.636;4.948;2022-09-21T04:58:07;102794.13;;;17.91;54.15
59873;BME280;50750;51.636;4.948;2022-09-21T05:00:34;102796.25;;;17.91;54.22
59873;BME280;50750;51.636;4.948;2022-09-21T05:03:00;102797.16;;;17.90;54.13
59873;BME280;50750;51.636;4.948;2022-09-21T05:05:27;102800.69;;;17.91;54.12
59873;BME280;50750;51.636;4.948;2022-09-21T05:07:53;102802.31;;;17.90;54.13
59873;BME280;50750;51.636;4.948;2022-09-21T05:10:19;102800.92;;;17.89;54.15
59873;BME280;50750;51.636;4.948;2022-09-21T05:12:46;102804.84;;;17.88;54.25
59873;BME280;50750;51.636;4.948;2022-09-21T05:15:13;102801.84;;;17.88;54.12
59873;BME280;50750;51.636;4.948;2022-09-21T05:17:40;102802.02;;;17.87;53.97
59873;BME280;50750;51.636;4.948;2022-09-21T05:20:06;102803.09;;;17.82;52.60
59873;BME280;50750;51.636;4.948;2022-09-21T05:22:33;102801.77;;;17.78;52.77
59873;BME280;50750;51.636;4.948;2022-09-21T05:24:59;102803.96;;;17.75;52.94
59873;BME280;50750;51.636;4.948;2022-09-21T05:27:26;102803.75;;;17.70;51.84
59873;BME280;50750;51.636;4.948;2022-09-21T05:29:52;102806.70;;;17.66;51.95
59873;BME280;50750;51.636;4.948;2022-09-21T05:32:24;102806.92;;;17.64;52.33
59873;BME280;50750;51.636;4.948;2022-09-21T05:37:58;102806.75;;;17.64;52.73
59873;BME280;50750;51.636;4.948;2022-09-21T05:40:26;102808.67;;;17.64;52.71
59873;BME280;50750;51.636;4.948;2022-09-21T05:42:53;102810.08;;;17.66;52.93
59873;BME280;50750;51.636;4.948;2022-09-21T05:45:20;102810.58;;;17.67;53.05
59873;BME280;50750;51.636;4.948;2022-09-21T05:50:36;102813.01;;;17.69;53.28
59873;BME280;50750;51.636;4.948;2022-09-21T05:55:58;102816.33;;;17.71;53.19
59873;BME280;50750;51.636;4.948;2022-09-21T05:58:53;102820.06;;;17.70;52.66
59873;BME280;50750;51.636;4.948;2022-09-21T06:04:13;102824.50;;;17.51;50.94
59873;BME280;50750;51.636;4.948;2022-09-21T06:06:41;102826.09;;;17.38;50.86
59873;BME280;50750;51.636;4.948;2022-09-21T06:09:07;102824.54;;;17.23;50.88
59873;BME280;50750;51.636;4.948;2022-09-21T06:11:35;102823.30;;;17.10;51.16
59873;BME280;50750;51.636;4.948;2022-09-21T06:14:02;102826.64;;;16.97;51.35
59873;BME280;50750;51.636;4.948;2022-09-21T06:16:37;102830.85;;;16.85;51.43
59873;BME280;50750;51.636;4.948;2022-09-21T06:19:04;102830.59;;;16.72;51.77
59873;BME280;50750;51.636;4.948;2022-09-21T06:21:37;102831.73;;;16.62;52.01
59873;BME280;50750;51.636;4.948;2022-09-21T06:24:05;102837.45;;;16.52;52.48
59873;BME280;50750;51.636;4.948;2022-09-21T06:26:31;102837.84;;;16.43;52.87
59873;BME280;50750;51.636;4.948;2022-09-21T06:28:59;102842.78;;;16.35;53.23
59873;BME280;50750;51.636;4.948;2022-09-21T06:31:29;102841.04;;;16.26;53.53
59873;BME280;50750;51.636;4.948;2022-09-21T06:33:56;102838.55;;;16.20;53.99
59873;BME280;50750;51.636;4.948;2022-09-21T06:36:26;102839.75;;;16.13;54.25
59873;BME280;50750;51.636;4.948;2022-09-21T06:39:00;102840.25;;;16.06;54.50
59873;BME280;50750;51.636;4.948;2022-09-21T06:41:27;102843.20;;;16.01;54.79
59873;BME280;50750;51.636;4.948;2022-09-21T06:43:53;102846.48;;;15.96;55.06
59873;BME280;50750;51.636;4.948;2022-09-21T06:46:21;102847.31;;;15.90;55.14
59873;BME280;50750;51.636;4.948;2022-09-21T06:48:50;102848.46;;;15.85;55.57
59873;BME280;50750;51.636;4.948;2022-09-21T06:51:17;102849.44;;;15.81;56.03
59873;BME280;50750;51.636;4.948;2022-09-21T06:53:46;102844.75;;;15.77;56.38
59873;BME280;50750;51.636;4.948;2022-09-21T06:56:13;102847.48;;;15.74;56.80
59873;BME280;50750;51.636;4.948;2022-09-21T06:58:41;102842.77;;;15.71;56.95
59873;BME280;50750;51.636;4.948;2022-09-21T07:01:10;102843.86;;;15.67;57.34
59873;BME280;50750;51.636;4.948;2022-09-21T07:03:37;102842.50;;;15.65;57.70
59873;BME280;50750;51.636;4.948;2022-09-21T07:06:06;102844.30;;;15.62;58.07
59873;BME280;50750;51.636;4.948;2022-09-21T07:08:33;102843.64;;;15.60;58.26
59873;BME280;50750;51.636;4.948;2022-09-21T07:11:03;102846.67;;;15.59;58.52
59873;BME280;50750;51.636;4.948;2022-09-21T07:13:30;102847.23;;;15.57;58.81
59873;BME280;50750;51.636;4.948;2022-09-21T07:15:57;102845.13;;;15.57;59.14
59873;BME280;50750;51.636;4.948;2022-09-21T07:18:23;102849.73;;;15.56;59.36
59873;BME280;50750;51.636;4.948;2022-09-21T07:20:50;102847.44;;;15.56;59.48
59873;BME280;50750;51.636;4.948;2022-09-21T07:23:18;102847.45;;;15.56;59.73
59873;BME280;50750;51.636;4.948;2022-09-21T07:25:47;102846.91;;;15.55;59.97
59873;BME280;50750;51.636;4.948;2022-09-21T07:28:15;102844.95;;;15.56;60.25
59873;BME280;50750;51.636;4.948;2022-09-21T07:30:42;102846.16;;;15.58;60.36
59873;BME280;50750;51.636;4.948;2022-09-21T07:33:08;102845.62;;;15.59;60.48
59873;BME280;50750;51.636;4.948;2022-09-21T07:35:35;102843.28;;;15.60;60.61
59873;BME280;50750;51.636;4.948;2022-09-21T07:38:06;102844.30;;;15.62;60.75
59873;BME280;50750;51.636;4.948;2022-09-21T07:40:33;102846.22;;;15.63;60.99
59873;BME280;50750;51.636;4.948;2022-09-21T07:43:01;102843.92;;;15.64;60.99
59873;BME280;50750;51.636;4.948;2022-09-21T07:45:29;102845.83;;;15.65;61.26
59873;BME280;50750;51.636;4.948;2022-09-21T07:48:05;102840.87;;;15.66;61.55
59873;BME280;50750;51.636;4.948;2022-09-21T07:50:34;102841.55;;;15.67;61.56
59873;BME280;50750;51.636;4.948;2022-09-21T07:53:01;102844.04;;;15.69;61.68
59873;BME280;50750;51.636;4.948;2022-09-21T07:55:28;102844.19;;;15.70;61.69
59873;BME280;50750;51.636;4.948;2022-09-21T07:57:55;102841.34;;;15.72;61.70
59873;BME280;50750;51.636;4.948;2022-09-21T08:00:40;102839.73;;;15.72;61.68
59873;BME280;50750;51.636;4.948;2022-09-21T08:03:06;102838.98;;;15.74;61.58
59873;BME280;50750;51.636;4.948;2022-09-21T08:05:33;102841.63;;;15.75;61.48
59873;BME280;50750;51.636;4.948;2022-09-21T08:07:59;102844.77;;;15.76;61.57
59873;BME280;50750;51.636;4.948;2022-09-21T08:10:26;102843.51;;;15.78;61.23
59873;BME280;50750;51.636;4.948;2022-09-21T08:12:57;102843.66;;;15.78;61.14
59873;BME280;50750;51.636;4.948;2022-09-21T08:15:24;102842.40;;;15.80;61.19
59873;BME280;50750;51.636;4.948;2022-09-21T08:17:50;102842.04;;;15.80;61.26
59873;BME280;50750;51.636;4.948;2022-09-21T08:20:17;102842.70;;;15.82;61.25
59873;BME280;50750;51.636;4.948;2022-09-21T08:22:44;102844.61;;;15.83;60.74
59873;BME280;50750;51.636;4.948;2022-09-21T08:25:10;102843.52;;;15.85;60.69
59873;BME280;50750;51.636;4.948;2022-09-21T08:27:37;102845.45;;;15.86;60.56
59873;BME280;50750;51.636;4.948;2022-09-21T08:30:06;102848.77;;;15.88;60.70
59873;BME280;50750;51.636;4.948;2022-09-21T08:32:33;102850.32;;;15.90;60.36
59873;BME280;50750;51.636;4.948;2022-09-21T08:34:59;102848.15;;;15.92;60.21
59873;BME280;50750;51.636;4.948;2022-09-21T08:37:26;102849.71;;;15.93;60.14
59873;BME280;50750;51.636;4.948;2022-09-21T08:39:52;102854.44;;;15.96;60.22
59873;BME280;50750;51.636;4.948;2022-09-21T08:42:33;102854.57;;;15.98;60.07
59873;BME280;50750;51.636;4.948;2022-09-21T08:45:12;102855.24;;;16.00;59.77
59873;BME280;50750;51.636;4.948;2022-09-21T08:47:54;102853.96;;;16.02;59.71
59873;BME280;50750;51.636;4.948;2022-09-21T08:50:32;102854.42;;;16.04;59.93
59873;BME280;50750;51.636;4.948;2022-09-21T08:53:06;102858.61;;;16.07;60.10
59873;BME280;50750;51.636;4.948;2022-09-21T08:55:35;102856.80;;;16.09;60.13
59873;BME280;50750;51.636;4.948;2022-09-21T08:58:01;102857.30;;;16.10;60.08
59873;BME280;50750;51.636;4.948;2022-09-21T09:00:32;102859.21;;;16.12;60.14
59873;BME280;50750;51.636;4.948;2022-09-21T09:03:20;102863.93;;;16.14;60.08
59873;BME280;50750;51.636;4.948;2022-09-21T09:05:58;102860.73;;;16.16;59.90
59873;BME280;50750;51.636;4.948;2022-09-21T09:08:45;102865.11;;;16.17;59.92
59873;BME280;50750;51.636;4.948;2022-09-21T09:11:27;102868.92;;;16.21;59.82
59873;BME280;50750;51.636;4.948;2022-09-21T09:20:01;102871.79;;;16.27;58.86
59873;BME280;50750;51.636;4.948;2022-09-21T09:22:35;102870.36;;;16.28;58.52
59873;BME280;50750;51.636;4.948;2022-09-21T09:25:05;102875.24;;;16.30;58.54
59873;BME280;50750;51.636;4.948;2022-09-21T09:27:41;102872.58;;;16.32;58.49
59873;BME280;50750;51.636;4.948;2022-09-21T09:30:25;102878.01;;;16.34;58.46
59873;BME280;50750;51.636;4.948;2022-09-21T09:37:58;102873.66;;;16.38;57.99
59873;BME280;50750;51.636;4.948;2022-09-21T09:40:39;102876.81;;;16.40;57.85
59873;BME280;50750;51.636;4.948;2022-09-21T09:51:11;102879.15;;;16.46;57.58
59873;BME280;50750;51.636;4.948;2022-09-21T09:53:38;102882.64;;;16.48;57.45
59873;BME280;50750;51.636;4.948;2022-09-21T09:56:08;102878.73;;;16.49;57.51
59873;BME280;50750;51.636;4.948;2022-09-21T09:58:40;102882.22;;;16.51;57.35
59873;BME280;50750;51.636;4.948;2022-09-21T10:04:23;102875.75;;;16.55;57.27
59873;BME280;50750;51.636;4.948;2022-09-21T10:06:50;102875.16;;;16.58;57.34
59873;BME280;50750;51.636;4.948;2022-09-21T10:09:31;102871.05;;;16.60;56.99
59873;BME280;50750;51.636;4.948;2022-09-21T10:12:33;102870.85;;;16.61;56.66
59873;BME280;50750;51.636;4.948;2022-09-21T10:15:00;102866.73;;;16.63;56.79
59873;BME280;50750;51.636;4.948;2022-09-21T10:17:26;102868.10;;;16.65;56.66
59873;BME280;50750;51.636;4.948;2022-09-21T10:20:04;102863.30;;;16.67;56.74
59873;BME280;50750;51.636;4.948;2022-09-21T10:22:33;102860.05;;;16.68;56.66
59873;BME280;50750;51.636;4.948;2022-09-21T10:24:59;102861.61;;;16.70;56.63
59873;BME280;50750;51.636;4.948;2022-09-21T10:27:36;102859.29;;;16.71;56.38
59873;BME280;50750;51.636;4.948;2022-09-21T10:30:03;102858.02;;;16.72;56.26
59873;BME280;50750;51.636;4.948;2022-09-21T10:32:29;102857.45;;;16.74;56.38
59873;BME280;50750;51.636;4.948;2022-09-21T10:37:33;102852.27;;;16.77;56.43
59873;BME280;50750;51.636;4.948;2022-09-21T10:40:00;102851.67;;;16.80;56.65
59873;BME280;50750;51.636;4.948;2022-09-21T10:42:33;102846.35;;;16.81;56.21
59873;BME280;50750;51.636;4.948;2022-09-21T10:45:27;102846.14;;;16.82;55.93
59873;BME280;50750;51.636;4.948;2022-09-21T10:48:05;102845.39;;;16.83;56.03
59873;BME280;50750;51.636;4.948;2022-09-21T10:50:39;102841.65;;;16.84;56.02
59873;BME280;50750;51.636;4.948;2022-09-21T10:55:36;102841.19;;;16.89;56.06
59873;BME280;50750;51.636;4.948;2022-09-21T10:58:08;102844.17;;;16.90;56.16
59873;BME280;50750;51.636;4.948;2022-09-21T11:00:43;102843.77;;;16.92;56.12
59873;BME280;50750;51.636;4.948;2022-09-21T11:06:08;102845.81;;;16.95;56.03
59873;BME280;50750;51.636;4.948;2022-09-21T11:14:51;102840.62;;;16.97;55.21
59873;BME280;50750;51.636;4.948;2022-09-21T11:17:52;102840.27;;;16.98;54.86
59873;BME280;50750;51.636;4.948;2022-09-21T11:26:20;102835.80;;;16.99;55.18
59873;BME280;50750;51.636;4.948;2022-09-21T11:37:49;102830.63;;;17.01;55.44
59873;BME280;50750;51.636;4.948;2022-09-21T11:40:24;102831.34;;;17.01;55.63
59873;BME280;50750;51.636;4.948;2022-09-21T12:04:43;102811.94;;;17.12;55.45
59873;BME280;50750;51.636;4.948;2022-09-21T12:10:17;102810.23;;;17.16;54.97
59873;BME280;50750;51.636;4.948;2022-09-21T12:12:57;102807.20;;;17.17;55.18
59873;BME280;50750;51.636;4.948;2022-09-21T12:18:35;102799.63;;;17.21;55.06
59873;BME280;50750;51.636;4.948;2022-09-21T12:23:43;102800.77;;;17.25;55.22
59873;BME280;50750;51.636;4.948;2022-09-21T12:26:18;102798.65;;;17.25;55.21
59873;BME280;50750;51.636;4.948;2022-09-21T12:28:51;102793.28;;;17.27;55.10
59873;BME280;50750;51.636;4.948;2022-09-21T12:31:27;102794.47;;;17.29;55.00
59873;BME280;50750;51.636;4.948;2022-09-21T12:33:59;102788.07;;;17.30;54.77
59873;BME280;50750;51.636;4.948;2022-09-21T12:36:32;102781.83;;;17.31;54.69
59873;BME280;50750;51.636;4.948;2022-09-21T12:44:04;102780.30;;;17.35;54.61
59873;BME280;50750;51.636;4.948;2022-09-21T12:46:44;102780.45;;;17.36;54.50
59873;BME280;50750;51.636;4.948;2022-09-21T12:49:24;102780.58;;;17.38;54.51
59873;BME280;50750;51.636;4.948;2022-09-21T12:51:56;102777.01;;;17.39;54.66
59873;BME280;50750;51.636;4.948;2022-09-21T13:00:12;102766.84;;;17.41;53.50
59873;BME280;50750;51.636;4.948;2022-09-21T13:05:36;102761.49;;;17.42;53.23
59873;BME280;50750;51.636;4.948;2022-09-21T13:08:16;102758.64;;;17.43;53.50
59873;BME280;50750;51.636;4.948;2022-09-21T13:11:01;102755.77;;;17.45;53.44
59873;BME280;50750;51.636;4.948;2022-09-21T13:13:37;102753.06;;;17.47;53.12
59873;BME280;50750;51.636;4.948;2022-09-21T13:16:05;102754.61;;;17.48;53.30
59873;BME280;50750;51.636;4.948;2022-09-21T13:18:38;102755.13;;;17.49;53.15
59873;BME280;50750;51.636;4.948;2022-09-21T13:21:26;102753.48;;;17.51;52.98
59873;BME280;50750;51.636;4.948;2022-09-21T13:24:00;102753.98;;;17.52;52.96
59873;BME280;50750;51.636;4.948;2022-09-21T13:26:42;102753.20;;;17.54;53.05
59873;BME280;50750;51.636;4.948;2022-09-21T13:34:41;102747.98;;;17.57;53.42
59873;BME280;50750;51.636;4.948;2022-09-21T13:39:55;102746.83;;;17.60;53.46
59873;BME280;50750;51.636;4.948;2022-09-21T13:47:36;102741.89;;;17.65;53.59
59873;BME280;50750;51.636;4.948;2022-09-21T13:52:51;102741.44;;;17.69;53.83
59873;BME280;50750;51.636;4.948;2022-09-21T13:55:23;102742.25;;;17.71;53.71
59873;BME280;50750;51.636;4.948;2022-09-21T13:57:55;102739.55;;;17.72;53.93
59873;BME280;50750;51.636;4.948;2022-09-21T14:00:42;102736.16;;;17.73;53.99
59873;BME280;50750;51.636;4.948;2022-09-21T14:05:58;102730.77;;;17.76;54.23
59873;BME280;50750;51.636;4.948;2022-09-21T14:08:37;102729.67;;;17.77;54.28
59873;BME280;50750;51.636;4.948;2022-09-21T14:11:09;102729.66;;;17.77;54.20
59873;BME280;50750;51.636;4.948;2022-09-21T14:13:46;102728.73;;;17.78;54.30
59873;BME280;50750;51.636;4.948;2022-09-21T14:19:00;102725.17;;;17.80;54.43
59873;BME280;50750;51.636;4.948;2022-09-21T14:21:27;102722.84;;;17.80;54.46
59873;BME280;50750;51.636;4.948;2022-09-21T14:26:35;102717.31;;;17.82;54.45
59873;BME280;50750;51.636;4.948;2022-09-21T14:29:14;102714.59;;;17.83;54.44
59873;BME280;50750;51.636;4.948;2022-09-21T14:31:42;102718.84;;;17.84;54.45
59873;BME280;50750;51.636;4.948;2022-09-21T14:34:14;102716.64;;;17.86;54.45
59873;BME280;50750;51.636;4.948;2022-09-21T14:36:46;102718.56;;;17.87;54.47
59873;BME280;50750;51.636;4.948;2022-09-21T14:41:48;102717.45;;;17.90;54.49
59873;BME280;50750;51.636;4.948;2022-09-21T14:44:20;102716.91;;;17.90;54.59
59873;BME280;50750;51.636;4.948;2022-09-21T14:49:39;102710.82;;;17.91;54.48
59873;BME280;50750;51.636;4.948;2022-09-21T14:52:34;102708.52;;;17.91;53.93
59873;BME280;50750;51.636;4.948;2022-09-21T14:55:15;102703.53;;;17.92;53.70
59873;BME280;50750;51.636;4.948;2022-09-21T15:05:32;102691.23;;;17.94;53.61
59873;BME280;50750;51.636;4.948;2022-09-21T15:11:09;102683.95;;;17.95;53.69
59873;BME280;50750;51.636;4.948;2022-09-21T15:16:37;102679.67;;;17.96;53.65
59873;BME280;50750;51.636;4.948;2022-09-21T15:21:54;102675.58;;;17.96;53.75
59873;BME280;50750;51.636;4.948;2022-09-21T15:24:28;102669.00;;;17.96;53.84
59873;BME280;50750;51.636;4.948;2022-09-21T15:27:14;102670.23;;;17.97;53.82
59873;BME280;50750;51.636;4.948;2022-09-21T15:29:46;102668.45;;;17.97;53.95
59873;BME280;50750;51.636;4.948;2022-09-21T15:32:43;102662.39;;;17.98;53.93
59873;BME280;50750;51.636;4.948;2022-09-21T15:35:18;102659.17;;;17.99;54.00
59873;BME280;50750;51.636;4.948;2022-09-21T15:37:46;102655.98;;;17.99;54.04
59873;BME280;50750;51.636;4.948;2022-09-21T15:43:16;102653.64;;;18.00;54.08
59873;BME280;50750;51.636;4.948;2022-09-21T15:46:01;102652.58;;;18.00;54.08
59873;BME280;50750;51.636;4.948;2022-09-21T15:48:36;102652.02;;;18.01;54.15
59873;BME280;50750;51.636;4.948;2022-09-21T15:51:11;102653.25;;;18.01;54.15
59873;BME280;50750;51.636;4.948;2022-09-21T15:53:45;102652.73;;;18.01;54.13
59873;BME280;50750;51.636;4.948;2022-09-21T15:56:18;102655.02;;;18.02;54.21
59873;BME280;50750;51.636;4.948;2022-09-21T15:58:46;102652.34;;;18.02;54.17
59873;BME280;50750;51.636;4.948;2022-09-21T16:01:18;102655.16;;;18.02;54.23
59873;BME280;50750;51.636;4.948;2022-09-21T16:03:47;102653.23;;;18.02;54.24
59873;BME280;50750;51.636;4.948;2022-09-21T16:06:34;102650.02;;;18.02;54.26
59873;BME280;50750;51.636;4.948;2022-09-21T16:09:27;102647.53;;;18.02;54.21
59873;BME280;50750;51.636;4.948;2022-09-21T16:11:56;102649.66;;;18.02;54.19
59873;BME280;50750;51.636;4.948;2022-09-21T16:14:23;102648.78;;;18.03;54.47
59873;BME280;50750;51.636;4.948;2022-09-21T16:24:59;102649.11;;;18.03;54.25
59873;BME280;50750;51.636;4.948;2022-09-21T16:27:29;102648.75;;;18.03;54.35
59873;BME280;50750;51.636;4.948;2022-09-21T16:29:57;102650.16;;;18.04;54.30